sensor_id;sensor_type;location;lat;lon;timestamp;P1;durP1;ratioP1;P2;durP2;ratioP2
70576;SDS011;58138;43.138;24.702;2023-04-01T00:01:36;19.77;;;11.73;;
70576;SDS011;58138;43.138;24.702;2023-04-01T00:04:02;17.88;;;11.32;;
70576;SDS011;58138;43.138;24.702;2023-04-01T00:06:28;23.50;;;11.57;;
70576;SDS011;58138;43.138;24.702;2023-04-01T00:08:53;15.50;;;10.77;;
70576;SDS011;58138;43.138;24.702;2023-04-01T00:11:19;19.52;;;11.10;;
70576;SDS011;58138;43.138;24.702;2023-04-01T00:13:46;17.58;;;11.20;;
70576;SDS011;58138;43.138;24.702;2023-04-01T00:16:12;17.67;;;11.40;;
70576;SDS011;58138;43.138;24.702;2023-04-01T00:18:38;17.58;;;10.50;;
70576;SDS011;58138;43.138;24.702;2023-04-01T00:21:04;19.42;;;10.93;;
70576;SDS011;58138;43.138;24.702;2023-04-01T00:23:29;14.80;;;10.02;;
70576;SDS011;58138;43.138;24.702;2023-04-01T00:25:55;18.02;;;11.00;;
70576;SDS011;58138;43.138;24.702;2023-04-01T00:28:21;16.30;;;11.02;;
70576;SDS011;58138;43.138;24.702;2023-04-01T00:30:46;17.05;;;11.02;;
70576;SDS011;58138;43.138;24.702;2023-04-01T00:33:13;17.52;;;11.32;;
70576;SDS011;58138;43.138;24.702;2023-04-01T00:35:38;16.80;;;10.82;;
70576;SDS011;58138;43.138;24.702;2023-04-01T00:38:04;17.38;;;9.68;;
70576;SDS011;58138;43.138;24.702;2023-04-01T00:40:49;17.35;;;11.05;;
70576;SDS011;58138;43.138;24.702;2023-04-01T00:43:17;23.48;;;15.10;;
70576;SDS011;58138;43.138;24.702;2023-04-01T00:45:44;24.83;;;12.25;;
70576;SDS011;58138;43.138;24.702;2023-04-01T00:48:13;16.38;;;12.23;;
70576;SDS011;58138;43.138;24.702;2023-04-01T00:50:42;18.52;;;11.93;;
70576;SDS011;58138;43.138;24.702;2023-04-01T00:53:19;20.88;;;12.02;;
70576;SDS011;58138;43.138;24.702;2023-04-01T00:55:47;16.35;;;10.93;;
70576;SDS011;58138;43.138;24.702;2023-04-01T00:58:18;17.38;;;11.43;;
70576;SDS011;58138;43.138;24.702;2023-04-01T01:00:44;17.65;;;11.32;;
70576;SDS011;58138;43.138;24.702;2023-04-01T01:03:10;18.92;;;10.65;;
70576;SDS011;58138;43.138;24.702;2023-04-01T01:05:47;18.77;;;10.23;;
70576;SDS011;58138;43.138;24.702;2023-04-01T01:11:06;18.80;;;11.45;;
70576;SDS011;58138;43.138;24.702;2023-04-01T01:13:45;18.65;;;11.60;;
70576;SDS011;58138;43.138;24.702;2023-04-01T01:16:20;16.17;;;10.13;;
70576;SDS011;58138;43.138;24.702;2023-04-01T01:18:53;14.07;;;9.35;;
70576;SDS011;58138;43.138;24.702;2023-04-01T01:27:06;15.02;;;9.90;;
70576;SDS011;58138;43.138;24.702;2023-04-01T01:29:45;12.90;;;8.25;;
70576;SDS011;58138;43.138;24.702;2023-04-01T01:33:08;11.98;;;6.78;;
70576;SDS011;58138;43.138;24.702;2023-04-01T01:35:35;16.80;;;8.98;;
70576;SDS011;58138;43.138;24.702;2023-04-01T01:40:30;12.93;;;7.13;;
70576;SDS011;58138;43.138;24.702;2023-04-01T01:42:58;13.25;;;8.15;;
70576;SDS011;58138;43.138;24.702;2023-04-01T01:45:26;15.88;;;9.02;;
70576;SDS011;58138;43.138;24.702;2023-04-01T01:47:52;8.93;;;5.75;;
70576;SDS011;58138;43.138;24.702;2023-04-01T01:50:18;12.60;;;6.63;;
70576;SDS011;58138;43.138;24.702;2023-04-01T01:52:44;13.55;;;7.25;;
70576;SDS011;58138;43.138;24.702;2023-04-01T01:55:25;8.65;;;5.35;;
70576;SDS011;58138;43.138;24.702;2023-04-01T01:57:57;13.27;;;6.82;;
70576;SDS011;58138;43.138;24.702;2023-04-01T02:00:24;11.90;;;6.35;;
70576;SDS011;58138;43.138;24.702;2023-04-01T02:02:51;15.45;;;8.18;;
70576;SDS011;58138;43.138;24.702;2023-04-01T02:05:19;12.48;;;7.28;;
70576;SDS011;58138;43.138;24.702;2023-04-01T02:07:48;9.95;;;7.22;;
70576;SDS011;58138;43.138;24.702;2023-04-01T02:10:19;10.85;;;7.40;;
70576;SDS011;58138;43.138;24.702;2023-04-01T02:12:47;12.93;;;7.28;;
70576;SDS011;58138;43.138;24.702;2023-04-01T02:15:14;11.82;;;7.10;;
70576;SDS011;58138;43.138;24.702;2023-04-01T02:17:44;11.77;;;7.68;;
70576;SDS011;58138;43.138;24.702;2023-04-01T02:20:20;13.90;;;7.55;;
70576;SDS011;58138;43.138;24.702;2023-04-01T02:22:51;11.57;;;6.70;;
70576;SDS011;58138;43.138;24.702;2023-04-01T02:25:22;10.05;;;5.32;;
70576;SDS011;58138;43.138;24.702;2023-04-01T02:27:50;11.93;;;5.78;;
70576;SDS011;58138;43.138;24.702;2023-04-01T02:30:16;9.20;;;5.53;;
70576;SDS011;58138;43.138;24.702;2023-04-01T02:32:42;9.23;;;5.03;;
70576;SDS011;58138;43.138;24.702;2023-04-01T02:35:12;11.57;;;5.43;;
70576;SDS011;58138;43.138;24.702;2023-04-01T02:37:40;12.93;;;5.50;;
70576;SDS011;58138;43.138;24.702;2023-04-01T02:40:13;10.50;;;5.20;;
70576;SDS011;58138;43.138;24.702;2023-04-01T02:42:40;9.43;;;5.82;;
70576;SDS011;58138;43.138;24.702;2023-04-01T02:45:06;8.82;;;5.50;;
70576;SDS011;58138;43.138;24.702;2023-04-01T02:47:32;13.95;;;5.28;;
70576;SDS011;58138;43.138;24.702;2023-04-01T02:49:58;9.55;;;5.40;;
70576;SDS011;58138;43.138;24.702;2023-04-01T02:52:27;14.32;;;5.18;;
70576;SDS011;58138;43.138;24.702;2023-04-01T02:54:54;8.70;;;5.60;;
70576;SDS011;58138;43.138;24.702;2023-04-01T02:57:20;9.73;;;5.32;;
70576;SDS011;58138;43.138;24.702;2023-04-01T02:59:46;8.57;;;5.28;;
70576;SDS011;58138;43.138;24.702;2023-04-01T03:02:11;10.50;;;5.28;;
70576;SDS011;58138;43.138;24.702;2023-04-01T03:04:37;12.25;;;6.50;;
70576;SDS011;58138;43.138;24.702;2023-04-01T03:07:02;11.68;;;6.15;;
70576;SDS011;58138;43.138;24.702;2023-04-01T03:09:28;11.30;;;6.25;;
70576;SDS011;58138;43.138;24.702;2023-04-01T03:11:54;11.52;;;5.65;;
70576;SDS011;58138;43.138;24.702;2023-04-01T03:14:20;9.90;;;5.80;;
70576;SDS011;58138;43.138;24.702;2023-04-01T03:16:45;10.43;;;5.50;;
70576;SDS011;58138;43.138;24.702;2023-04-01T03:19:11;7.65;;;5.10;;
70576;SDS011;58138;43.138;24.702;2023-04-01T03:21:37;11.85;;;5.22;;
70576;SDS011;58138;43.138;24.702;2023-04-01T03:24:03;7.07;;;4.45;;
70576;SDS011;58138;43.138;24.702;2023-04-01T03:26:28;11.65;;;5.45;;
70576;SDS011;58138;43.138;24.702;2023-04-01T03:28:54;13.70;;;5.13;;
70576;SDS011;58138;43.138;24.702;2023-04-01T03:31:20;14.25;;;4.70;;
70576;SDS011;58138;43.138;24.702;2023-04-01T03:33:46;9.35;;;6.20;;
70576;SDS011;58138;43.138;24.702;2023-04-01T03:36:12;12.50;;;5.07;;
70576;SDS011;58138;43.138;24.702;2023-04-01T03:38:39;16.63;;;7.00;;
70576;SDS011;58138;43.138;24.702;2023-04-01T03:41:06;16.55;;;6.97;;
70576;SDS011;58138;43.138;24.702;2023-04-01T03:43:31;16.92;;;7.40;;
70576;SDS011;58138;43.138;24.702;2023-04-01T03:45:57;12.23;;;7.07;;
70576;SDS011;58138;43.138;24.702;2023-04-01T03:48:23;14.48;;;6.85;;
70576;SDS011;58138;43.138;24.702;2023-04-01T03:50:50;9.98;;;7.07;;
70576;SDS011;58138;43.138;24.702;2023-04-01T03:53:16;15.70;;;7.70;;
70576;SDS011;58138;43.138;24.702;2023-04-01T03:55:41;13.55;;;6.47;;
70576;SDS011;58138;43.138;24.702;2023-04-01T03:58:07;13.88;;;6.22;;
70576;SDS011;58138;43.138;24.702;2023-04-01T04:00:33;12.50;;;5.40;;
70576;SDS011;58138;43.138;24.702;2023-04-01T04:02:59;12.30;;;5.65;;
70576;SDS011;58138;43.138;24.702;2023-04-01T04:05:26;15.43;;;6.18;;
70576;SDS011;58138;43.138;24.702;2023-04-01T04:07:52;10.88;;;5.70;;
70576;SDS011;58138;43.138;24.702;2023-04-01T04:10:18;13.75;;;5.63;;
70576;SDS011;58138;43.138;24.702;2023-04-01T04:12:44;9.05;;;6.15;;
70576;SDS011;58138;43.138;24.702;2023-04-01T04:15:10;13.00;;;6.65;;
70576;SDS011;58138;43.138;24.702;2023-04-01T04:17:36;15.13;;;8.10;;
70576;SDS011;58138;43.138;24.702;2023-04-01T04:20:02;21.00;;;7.68;;
70576;SDS011;58138;43.138;24.702;2023-04-01T04:22:27;12.20;;;7.03;;
70576;SDS011;58138;43.138;24.702;2023-04-01T04:24:53;11.88;;;6.60;;
70576;SDS011;58138;43.138;24.702;2023-04-01T04:27:19;10.77;;;6.72;;
70576;SDS011;58138;43.138;24.702;2023-04-01T04:29:45;12.07;;;7.40;;
70576;SDS011;58138;43.138;24.702;2023-04-01T04:32:10;22.60;;;7.95;;
70576;SDS011;58138;43.138;24.702;2023-04-01T04:34:36;30.55;;;8.70;;
70576;SDS011;58138;43.138;24.702;2023-04-01T04:37:02;16.23;;;7.03;;
70576;SDS011;58138;43.138;24.702;2023-04-01T04:39:28;31.85;;;8.23;;
70576;SDS011;58138;43.138;24.702;2023-04-01T04:41:54;34.38;;;14.75;;
70576;SDS011;58138;43.138;24.702;2023-04-01T04:44:20;26.00;;;11.43;;
70576;SDS011;58138;43.138;24.702;2023-04-01T04:46:45;22.02;;;8.43;;
70576;SDS011;58138;43.138;24.702;2023-04-01T04:49:11;16.48;;;7.10;;
70576;SDS011;58138;43.138;24.702;2023-04-01T04:51:37;26.80;;;8.68;;
70576;SDS011;58138;43.138;24.702;2023-04-01T04:54:03;20.58;;;8.02;;
70576;SDS011;58138;43.138;24.702;2023-04-01T04:56:29;22.25;;;10.70;;
70576;SDS011;58138;43.138;24.702;2023-04-01T04:58:56;35.08;;;20.58;;
70576;SDS011;58138;43.138;24.702;2023-04-01T05:01:22;19.33;;;9.85;;
70576;SDS011;58138;43.138;24.702;2023-04-01T05:03:48;24.17;;;13.38;;
70576;SDS011;58138;43.138;24.702;2023-04-01T05:06:15;29.90;;;12.52;;
70576;SDS011;58138;43.138;24.702;2023-04-01T05:08:41;26.35;;;12.50;;
70576;SDS011;58138;43.138;24.702;2023-04-01T05:11:15;37.72;;;14.38;;
70576;SDS011;58138;43.138;24.702;2023-04-01T05:13:42;19.38;;;7.57;;
70576;SDS011;58138;43.138;24.702;2023-04-01T05:16:12;12.63;;;5.57;;
70576;SDS011;58138;43.138;24.702;2023-04-01T05:18:41;12.02;;;4.65;;
70576;SDS011;58138;43.138;24.702;2023-04-01T05:21:08;13.10;;;4.68;;
70576;SDS011;58138;43.138;24.702;2023-04-01T05:23:35;10.73;;;4.70;;
70576;SDS011;58138;43.138;24.702;2023-04-01T05:26:04;12.73;;;4.65;;
70576;SDS011;58138;43.138;24.702;2023-04-01T05:28:31;14.23;;;3.60;;
70576;SDS011;58138;43.138;24.702;2023-04-01T05:31:00;10.38;;;2.75;;
70576;SDS011;58138;43.138;24.702;2023-04-01T05:33:27;8.80;;;3.42;;
70576;SDS011;58138;43.138;24.702;2023-04-01T05:35:52;7.63;;;3.72;;
70576;SDS011;58138;43.138;24.702;2023-04-01T05:38:18;10.80;;;3.08;;
70576;SDS011;58138;43.138;24.702;2023-04-01T05:40:44;5.00;;;2.28;;
70576;SDS011;58138;43.138;24.702;2023-04-01T05:43:10;8.88;;;3.03;;
70576;SDS011;58138;43.138;24.702;2023-04-01T05:45:36;5.25;;;3.40;;
70576;SDS011;58138;43.138;24.702;2023-04-01T05:48:02;8.93;;;2.85;;
70576;SDS011;58138;43.138;24.702;2023-04-01T05:50:28;6.05;;;2.45;;
70576;SDS011;58138;43.138;24.702;2023-04-01T05:52:54;5.82;;;2.15;;
70576;SDS011;58138;43.138;24.702;2023-04-01T05:55:20;3.35;;;1.98;;
70576;SDS011;58138;43.138;24.702;2023-04-01T05:57:46;6.20;;;2.50;;
70576;SDS011;58138;43.138;24.702;2023-04-01T06:00:13;7.60;;;3.53;;
70576;SDS011;58138;43.138;24.702;2023-04-01T06:02:39;10.68;;;3.00;;
70576;SDS011;58138;43.138;24.702;2023-04-01T06:07:50;18.25;;;7.72;;
70576;SDS011;58138;43.138;24.702;2023-04-01T06:10:17;9.52;;;5.32;;
70576;SDS011;58138;43.138;24.702;2023-04-01T06:16:17;14.02;;;6.78;;
70576;SDS011;58138;43.138;24.702;2023-04-01T06:18:54;14.20;;;7.53;;
70576;SDS011;58138;43.138;24.702;2023-04-01T06:30:29;16.48;;;8.77;;
70576;SDS011;58138;43.138;24.702;2023-04-01T06:35:50;13.50;;;6.38;;
70576;SDS011;58138;43.138;24.702;2023-04-01T06:41:09;13.18;;;6.20;;
70576;SDS011;58138;43.138;24.702;2023-04-01T06:43:49;13.70;;;5.43;;
70576;SDS011;58138;43.138;24.702;2023-04-01T06:46:31;9.63;;;5.07;;
70576;SDS011;58138;43.138;24.702;2023-04-01T06:52:06;12.63;;;6.18;;
70576;SDS011;58138;43.138;24.702;2023-04-01T06:54:36;11.50;;;5.40;;
70576;SDS011;58138;43.138;24.702;2023-04-01T06:59:50;11.32;;;5.15;;
70576;SDS011;58138;43.138;24.702;2023-04-01T07:02:19;11.05;;;5.40;;
70576;SDS011;58138;43.138;24.702;2023-04-01T07:04:50;16.65;;;6.35;;
70576;SDS011;58138;43.138;24.702;2023-04-01T07:07:23;15.70;;;6.53;;
70576;SDS011;58138;43.138;24.702;2023-04-01T07:09:56;15.63;;;10.65;;
70576;SDS011;58138;43.138;24.702;2023-04-01T07:15:05;13.82;;;7.25;;
70576;SDS011;58138;43.138;24.702;2023-04-01T07:17:39;14.18;;;8.35;;
70576;SDS011;58138;43.138;24.702;2023-04-01T07:22:46;12.27;;;7.50;;
70576;SDS011;58138;43.138;24.702;2023-04-01T07:25:15;14.43;;;8.40;;
70576;SDS011;58138;43.138;24.702;2023-04-01T07:27:43;11.30;;;7.03;;
70576;SDS011;58138;43.138;24.702;2023-04-01T07:30:17;19.23;;;11.90;;
70576;SDS011;58138;43.138;24.702;2023-04-01T07:32:49;18.25;;;10.55;;
70576;SDS011;58138;43.138;24.702;2023-04-01T07:49:43;14.65;;;7.93;;
70576;SDS011;58138;43.138;24.702;2023-04-01T07:52:31;10.55;;;6.00;;
70576;SDS011;58138;43.138;24.702;2023-04-01T07:55:16;12.95;;;7.35;;
70576;SDS011;58138;43.138;24.702;2023-04-01T07:58:06;19.85;;;9.80;;
70576;SDS011;58138;43.138;24.702;2023-04-01T08:01:04;15.48;;;10.57;;
70576;SDS011;58138;43.138;24.702;2023-04-01T08:06:03;15.80;;;8.25;;
70576;SDS011;58138;43.138;24.702;2023-04-01T08:08:40;16.55;;;9.25;;
70576;SDS011;58138;43.138;24.702;2023-04-01T08:14:19;17.55;;;10.50;;
70576;SDS011;58138;43.138;24.702;2023-04-01T08:19:47;14.00;;;8.50;;
70576;SDS011;58138;43.138;24.702;2023-04-01T08:22:23;14.75;;;8.25;;
70576;SDS011;58138;43.138;24.702;2023-04-01T08:24:51;12.10;;;7.10;;
70576;SDS011;58138;43.138;24.702;2023-04-01T08:30:18;16.08;;;8.40;;
70576;SDS011;58138;43.138;24.702;2023-04-01T08:32:46;19.85;;;8.65;;
70576;SDS011;58138;43.138;24.702;2023-04-01T08:35:20;19.23;;;8.38;;
70576;SDS011;58138;43.138;24.702;2023-04-01T08:37:54;15.35;;;8.70;;
70576;SDS011;58138;43.138;24.702;2023-04-01T08:46:12;22.25;;;15.05;;
70576;SDS011;58138;43.138;24.702;2023-04-01T08:57:20;21.23;;;11.05;;
70576;SDS011;58138;43.138;24.702;2023-04-01T09:05:26;16.45;;;8.65;;
70576;SDS011;58138;43.138;24.702;2023-04-01T09:08:03;17.42;;;7.30;;
70576;SDS011;58138;43.138;24.702;2023-04-01T09:40:15;13.77;;;6.53;;
70576;SDS011;58138;43.138;24.702;2023-04-01T09:57:09;11.95;;;4.97;;
70576;SDS011;58138;43.138;24.702;2023-04-01T10:14:19;7.13;;;2.58;;
70576;SDS011;58138;43.138;24.702;2023-04-01T10:47:39;7.50;;;2.55;;
70576;SDS011;58138;43.138;24.702;2023-04-01T11:01:27;15.98;;;3.10;;
70576;SDS011;58138;43.138;24.702;2023-04-01T11:12:34;14.65;;;3.80;;
70576;SDS011;58138;43.138;24.702;2023-04-01T11:21:42;9.52;;;3.17;;
70576;SDS011;58138;43.138;24.702;2023-04-01T11:31:54;10.30;;;4.20;;
70576;SDS011;58138;43.138;24.702;2023-04-01T11:34:49;13.68;;;4.60;;
70576;SDS011;58138;43.138;24.702;2023-04-01T11:37:24;11.00;;;4.45;;
70576;SDS011;58138;43.138;24.702;2023-04-01T11:43:22;7.82;;;3.80;;
70576;SDS011;58138;43.138;24.702;2023-04-01T11:54:05;13.70;;;6.50;;
70576;SDS011;58138;43.138;24.702;2023-04-01T12:15:30;9.23;;;3.17;;
70576;SDS011;58138;43.138;24.702;2023-04-01T12:21:14;6.78;;;3.00;;
70576;SDS011;58138;43.138;24.702;2023-04-01T12:35:27;10.32;;;3.78;;
70576;SDS011;58138;43.138;24.702;2023-04-01T12:43:28;10.77;;;3.90;;
70576;SDS011;58138;43.138;24.702;2023-04-01T12:49:22;8.82;;;3.50;;
70576;SDS011;58138;43.138;24.702;2023-04-01T12:52:03;9.65;;;4.57;;
70576;SDS011;58138;43.138;24.702;2023-04-01T13:03:07;10.13;;;4.13;;
70576;SDS011;58138;43.138;24.702;2023-04-01T13:08:42;6.43;;;3.50;;
70576;SDS011;58138;43.138;24.702;2023-04-01T13:11:20;10.40;;;3.90;;
70576;SDS011;58138;43.138;24.702;2023-04-01T13:16:45;15.20;;;3.97;;
70576;SDS011;58138;43.138;24.702;2023-04-01T13:22:38;12.02;;;4.10;;
70576;SDS011;58138;43.138;24.702;2023-04-01T13:28:43;19.02;;;6.07;;
70576;SDS011;58138;43.138;24.702;2023-04-01T13:31:24;9.80;;;4.57;;
70576;SDS011;58138;43.138;24.702;2023-04-01T13:39:44;14.43;;;5.53;;
70576;SDS011;58138;43.138;24.702;2023-04-01T13:54:14;16.80;;;8.77;;
70576;SDS011;58138;43.138;24.702;2023-04-01T14:00:10;18.70;;;8.25;;
70576;SDS011;58138;43.138;24.702;2023-04-01T14:11:26;20.20;;;11.63;;
70576;SDS011;58138;43.138;24.702;2023-04-01T14:19:51;21.00;;;12.50;;
70576;SDS011;58138;43.138;24.702;2023-04-01T14:25:25;18.02;;;11.40;;
70576;SDS011;58138;43.138;24.702;2023-04-01T14:28:26;23.92;;;12.98;;
70576;SDS011;58138;43.138;24.702;2023-04-01T14:39:21;29.63;;;18.60;;
70576;SDS011;58138;43.138;24.702;2023-04-01T14:48:28;26.95;;;15.30;;
70576;SDS011;58138;43.138;24.702;2023-04-01T14:53:34;26.05;;;15.77;;
70576;SDS011;58138;43.138;24.702;2023-04-01T14:56:03;17.98;;;9.10;;
70576;SDS011;58138;43.138;24.702;2023-04-01T14:58:43;37.08;;;21.60;;
70576;SDS011;58138;43.138;24.702;2023-04-01T15:04:08;21.27;;;10.75;;
70576;SDS011;58138;43.138;24.702;2023-04-01T15:07:02;19.85;;;10.40;;
70576;SDS011;58138;43.138;24.702;2023-04-01T15:12:29;15.18;;;6.78;;
70576;SDS011;58138;43.138;24.702;2023-04-01T15:15:16;13.93;;;6.72;;
70576;SDS011;58138;43.138;24.702;2023-04-01T15:23:54;91.90;;;62.20;;
70576;SDS011;58138;43.138;24.702;2023-04-01T15:32:08;24.77;;;14.95;;
70576;SDS011;58138;43.138;24.702;2023-04-01T15:43:36;20.55;;;11.32;;
70576;SDS011;58138;43.138;24.702;2023-04-01T16:03:14;16.65;;;11.27;;
70576;SDS011;58138;43.138;24.702;2023-04-01T16:13:23;45.08;;;28.15;;
70576;SDS011;58138;43.138;24.702;2023-04-01T16:21:05;37.80;;;25.48;;
70576;SDS011;58138;43.138;24.702;2023-04-01T16:23:36;38.47;;;24.30;;
70576;SDS011;58138;43.138;24.702;2023-04-01T16:26:06;32.35;;;19.00;;
70576;SDS011;58138;43.138;24.702;2023-04-01T16:28:53;29.83;;;15.65;;
70576;SDS011;58138;43.138;24.702;2023-04-01T16:31:42;21.25;;;13.30;;
70576;SDS011;58138;43.138;24.702;2023-04-01T16:34:21;17.92;;;11.65;;
70576;SDS011;58138;43.138;24.702;2023-04-01T16:48:15;30.60;;;18.70;;
70576;SDS011;58138;43.138;24.702;2023-04-01T16:51:05;22.55;;;13.60;;
70576;SDS011;58138;43.138;24.702;2023-04-01T16:53:44;19.65;;;12.60;;
70576;SDS011;58138;43.138;24.702;2023-04-01T16:58:57;22.42;;;15.00;;
70576;SDS011;58138;43.138;24.702;2023-04-01T17:01:41;20.30;;;14.45;;
70576;SDS011;58138;43.138;24.702;2023-04-01T17:04:22;26.38;;;16.05;;
70576;SDS011;58138;43.138;24.702;2023-04-01T17:07:05;29.15;;;19.63;;
70576;SDS011;58138;43.138;24.702;2023-04-01T17:12:34;44.28;;;28.55;;
70576;SDS011;58138;43.138;24.702;2023-04-01T17:15:09;40.90;;;23.75;;
70576;SDS011;58138;43.138;24.702;2023-04-01T17:18:01;12.68;;;8.35;;
70576;SDS011;58138;43.138;24.702;2023-04-01T17:20:40;12.02;;;8.38;;
70576;SDS011;58138;43.138;24.702;2023-04-01T17:26:09;5.13;;;3.40;;
70576;SDS011;58138;43.138;24.702;2023-04-01T17:28:50;5.18;;;4.05;;
70576;SDS011;58138;43.138;24.702;2023-04-01T17:36:44;2.88;;;2.00;;
70576;SDS011;58138;43.138;24.702;2023-04-01T17:56:12;3.90;;;3.00;;
70576;SDS011;58138;43.138;24.702;2023-04-01T18:01:46;7.50;;;4.03;;
70576;SDS011;58138;43.138;24.702;2023-04-01T18:09:39;16.55;;;11.02;;
70576;SDS011;58138;43.138;24.702;2023-04-01T18:30:35;7.43;;;5.50;;
70576;SDS011;58138;43.138;24.702;2023-04-01T18:38:26;6.45;;;4.53;;
70576;SDS011;58138;43.138;24.702;2023-04-01T18:57:19;9.23;;;5.30;;
70576;SDS011;58138;43.138;24.702;2023-04-01T18:59:50;7.80;;;5.10;;
70576;SDS011;58138;43.138;24.702;2023-04-01T19:02:32;8.43;;;5.75;;
70576;SDS011;58138;43.138;24.702;2023-04-01T19:07:55;9.18;;;5.95;;
70576;SDS011;58138;43.138;24.702;2023-04-01T19:10:31;12.55;;;5.82;;
70576;SDS011;58138;43.138;24.702;2023-04-01T19:13:22;4.85;;;3.30;;
70576;SDS011;58138;43.138;24.702;2023-04-01T19:24:20;5.10;;;3.97;;
70576;SDS011;58138;43.138;24.702;2023-04-01T19:35:20;9.07;;;6.38;;
70576;SDS011;58138;43.138;24.702;2023-04-01T19:38:03;7.75;;;5.00;;
70576;SDS011;58138;43.138;24.702;2023-04-01T19:53:56;5.22;;;3.80;;
70576;SDS011;58138;43.138;24.702;2023-04-01T19:56:41;8.68;;;5.60;;
70576;SDS011;58138;43.138;24.702;2023-04-01T19:59:32;11.00;;;4.70;;
70576;SDS011;58138;43.138;24.702;2023-04-01T20:04:34;4.90;;;4.07;;
70576;SDS011;58138;43.138;24.702;2023-04-01T20:07:06;7.32;;;5.53;;
70576;SDS011;58138;43.138;24.702;2023-04-01T20:10:13;11.38;;;6.97;;
70576;SDS011;58138;43.138;24.702;2023-04-01T20:17:50;5.10;;;2.95;;
70576;SDS011;58138;43.138;24.702;2023-04-01T20:20:21;3.45;;;2.97;;
70576;SDS011;58138;43.138;24.702;2023-04-01T20:25:32;5.20;;;3.38;;
70576;SDS011;58138;43.138;24.702;2023-04-01T20:28:20;3.30;;;2.50;;
70576;SDS011;58138;43.138;24.702;2023-04-01T20:31:03;2.63;;;2.13;;
70576;SDS011;58138;43.138;24.702;2023-04-01T20:34:06;6.00;;;4.40;;
70576;SDS011;58138;43.138;24.702;2023-04-01T20:44:10;5.07;;;3.47;;
70576;SDS011;58138;43.138;24.702;2023-04-01T21:00:45;3.10;;;2.50;;
70576;SDS011;58138;43.138;24.702;2023-04-01T21:03:45;7.00;;;3.38;;
70576;SDS011;58138;43.138;24.702;2023-04-01T21:09:31;4.80;;;3.40;;
70576;SDS011;58138;43.138;24.702;2023-04-01T21:17:32;6.55;;;3.65;;
70576;SDS011;58138;43.138;24.702;2023-04-01T21:33:45;8.02;;;4.32;;
70576;SDS011;58138;43.138;24.702;2023-04-01T21:36:39;5.55;;;4.57;;
70576;SDS011;58138;43.138;24.702;2023-04-01T22:04:56;3.83;;;3.40;;
70576;SDS011;58138;43.138;24.702;2023-04-01T22:07:45;4.40;;;3.13;;
70576;SDS011;58138;43.138;24.702;2023-04-01T22:18:31;2.80;;;2.60;;
70576;SDS011;58138;43.138;24.702;2023-04-01T22:23:45;2.80;;;2.50;;
70576;SDS011;58138;43.138;24.702;2023-04-01T22:32:43;2.55;;;2.35;;
70576;SDS011;58138;43.138;24.702;2023-04-01T22:41:16;3.10;;;2.80;;
70576;SDS011;58138;43.138;24.702;2023-04-01T22:43:48;2.53;;;2.33;;
70576;SDS011;58138;43.138;24.702;2023-04-01T22:49:17;3.65;;;2.60;;
70576;SDS011;58138;43.138;24.702;2023-04-01T22:51:54;2.72;;;2.53;;
70576;SDS011;58138;43.138;24.702;2023-04-01T22:55:04;2.80;;;2.60;;
70576;SDS011;58138;43.138;24.702;2023-04-01T22:57:16;2.80;;;2.60;;
70576;SDS011;58138;43.138;24.702;2023-04-01T22:59:52;3.38;;;2.95;;
70576;SDS011;58138;43.138;24.702;2023-04-01T23:02:23;2.58;;;2.38;;
70576;SDS011;58138;43.138;24.702;2023-04-01T23:04:56;2.85;;;2.65;;
70576;SDS011;58138;43.138;24.702;2023-04-01T23:10:02;2.72;;;2.53;;
70576;SDS011;58138;43.138;24.702;2023-04-01T23:12:31;2.53;;;2.33;;
70576;SDS011;58138;43.138;24.702;2023-04-01T23:14:58;3.75;;;2.10;;
70576;SDS011;58138;43.138;24.702;2023-04-01T23:23:12;2.10;;;1.95;;
70576;SDS011;58138;43.138;24.702;2023-04-01T23:28:43;2.28;;;2.08;;
70576;SDS011;58138;43.138;24.702;2023-04-01T23:36:38;1.83;;;1.70;;
70576;SDS011;58138;43.138;24.702;2023-04-01T23:42:17;2.42;;;2.22;;
70576;SDS011;58138;43.138;24.702;2023-04-01T23:44:49;2.33;;;2.13;;
70576;SDS011;58138;43.138;24.702;2023-04-01T23:49:56;2.60;;;2.40;;
70576;SDS011;58138;43.138;24.702;2023-04-01T23:52:25;2.60;;;2.40;;
70576;SDS011;58138;43.138;24.702;2023-04-01T23:57:34;1.75;;;1.65;;
